KDWH/DWH METAR and TAF weather

Enter ICAO airport designator
Station Type Date Time Source
KDWH METAR 2018/09/21 22:53 UTC NOAA

KDWH 212253Z 09006KT 3SM -RA FEW055 SCT110 26/25 A2993 RMK AO2 SFC VIS 10 RAE05B24 SLP131 P0001 T02560250


Station Type Date Time Source
KDWH Decoded METAR 2018/09/21 22:53 UTC NOAA

HOUSTON HOOKS MEMORIAL, TX, United States (KDWH) 30-04N 95-33W 46M
Sep 21, 2018 - 06:53 PM EDT / 2018.09.21 2253 UTC
Wind: from the E (090 degrees) at 7 MPH (6 KT):0
Visibility: 3 mile(s):0
Sky conditions: partly cloudy
Weather: light rain
Precipitation last hour: 0.01 inches
Temperature: 78.1 F (25.6 C)
Dew Point: 77.0 F (25.0 C)
Relative Humidity: 96%
Pressure (altimeter): 29.93 in. Hg (1013 hPa)
ob: KDWH 212253Z 09006KT 3SM -RA FEW055 SCT110 26/25 A2993 RMK AO2 SFC VIS 10 RAE05B24 SLP131 P0001 T02560250
cycle: 23

Station Type Date Time Source
KDWH TAF 2017/02/07 15:09 UTC NOAA

TAF
AMD KDWH 071507Z 0715/0812 23010KT P6SM BKN015
TEMPO 0715/0719 SCT015
FM071900 25010KT P6SM SCT025
FM080100 22005KT P6SM SCT250
TEMPO 0807/0809 3SM BR BKN013
FM080900 VRB03KT 2SM BR OVC008


Example: see airport list